Time;durP1;ratioP1;P1;durP2;ratioP2;P2;SDS_P1;SDS_P2;PMS_P1;PMS_P2;Temp;Humidity;BMP_temperature;BMP_pressure;BME280_temperature;BME280_humidity;BME280_pressure;Samples;Min_cycle;Max_cycle;Signal;HPM_P1;HPM_P2
2021/05/19 00:00:47;;;;;;;12.67;8.40;;;10.30;99.90;;;;;;6271933;22;20215;-84
2021/05/19 00:03:14;;;;;;;12.87;7.57;;;10.40;99.90;;;;;;6272468;22;20174;-85
2021/05/19 00:05:40;;;;;;;15.03;8.70;;;10.40;99.90;;;;;;6271783;22;20192;-85
2021/05/19 00:08:07;;;;;;;14.50;8.97;;;10.40;99.90;;;;;;6272717;22;20524;-85
2021/05/19 00:10:33;;;;;;;12.17;8.73;;;10.40;99.90;;;;;;6272842;22;20161;-84
2021/05/19 00:13:01;;;;;;;10.43;8.20;;;10.40;99.90;;;;;;6272152;22;20173;-84
2021/05/19 00:15:27;;;;;;;11.13;8.57;;;10.40;99.90;;;;;;6272109;22;20262;-82
2021/05/19 00:17:54;;;;;;;10.10;8.10;;;10.40;99.90;;;;;;6272738;22;20180;-87
2021/05/19 00:20:21;;;;;;;13.60;8.70;;;10.30;99.90;;;;;;6272236;22;20195;-85
2021/05/19 00:22:47;;;;;;;10.83;8.43;;;10.30;99.90;;;;;;6271375;22;20177;-84
2021/05/19 00:25:15;;;;;;;15.37;9.40;;;10.30;99.90;;;;;;6272027;22;20200;-87
2021/05/19 00:27:42;;;;;;;10.07;8.00;;;10.30;99.90;;;;;;6270178;22;20513;-82
2021/05/19 00:30:15;;;;;;;14.77;9.53;;;10.30;99.90;;;;;;6270263;22;20173;-86
2021/05/19 00:32:42;;;;;;;11.67;8.87;;;10.30;99.90;;;;;;6269712;22;20431;-82
2021/05/19 00:35:09;;;;;;;14.30;9.37;;;10.30;99.90;;;;;;6270453;22;20168;-84
2021/05/19 00:37:35;;;;;;;13.13;8.70;;;10.30;99.90;;;;;;6270249;22;20554;-82
2021/05/19 00:40:02;;;;;;;11.50;8.87;;;10.30;99.90;;;;;;6269828;22;20812;-83
2021/05/19 00:42:28;;;;;;;9.80;7.13;;;10.30;99.90;;;;;;6268867;22;20169;-85
2021/05/19 00:44:54;;;;;;;10.03;7.67;;;10.30;99.90;;;;;;6268872;22;20169;-84
2021/05/19 00:47:32;;;;;;;11.10;8.20;;;10.20;99.90;;;;;;6269378;22;20161;-85
2021/05/19 00:49:59;;;;;;;19.00;9.03;;;10.20;99.90;;;;;;6269943;22;20238;-86
2021/05/19 00:52:25;;;;;;;11.93;8.73;;;10.20;99.90;;;;;;6269846;22;20172;-83
2021/05/19 00:54:51;;;;;;;14.30;8.63;;;10.20;99.90;;;;;;6269755;22;20183;-85
2021/05/19 00:57:18;;;;;;;14.33;8.77;;;10.30;99.90;;;;;;6269430;22;20180;-85
2021/05/19 00:59:45;;;;;;;16.03;9.10;;;10.30;99.90;;;;;;6267755;22;20486;-82
2021/05/19 01:02:12;;;;;;;12.00;8.90;;;10.30;99.90;;;;;;6269071;22;20176;-84
2021/05/19 01:04:39;;;;;;;12.87;8.27;;;10.30;99.90;;;;;;6270259;22;20942;-84
2021/05/19 01:07:14;;;;;;;12.70;8.47;;;10.30;99.90;;;;;;6270270;22;20200;-84
2021/05/19 01:09:39;;;;;;;14.10;7.87;;;10.30;99.90;;;;;;6269794;22;20202;-85
2021/05/19 01:12:10;;;;;;;12.33;7.90;;;10.30;99.90;;;;;;6269387;22;20527;-84
2021/05/19 01:14:38;;;;;;;12.50;8.37;;;10.30;99.90;;;;;;6267955;22;20180;-84
2021/05/19 01:17:04;;;;;;;10.50;8.13;;;10.30;99.90;;;;;;6270850;22;20201;-84
2021/05/19 01:19:31;;;;;;;11.30;7.70;;;10.40;99.90;;;;;;6269993;22;20177;-85
2021/05/19 01:22:06;;;;;;;10.03;7.23;;;10.40;99.90;;;;;;6269293;22;20180;-85
2021/05/19 01:24:33;;;;;;;12.13;8.60;;;10.40;99.90;;;;;;6270013;22;20222;-83
2021/05/19 01:26:59;;;;;;;12.23;7.73;;;10.50;99.90;;;;;;6269308;22;20254;-85
2021/05/19 01:29:26;;;;;;;13.13;6.97;;;10.50;99.90;;;;;;6269899;22;20839;-85
2021/05/19 01:31:52;;;;;;;9.93;6.97;;;10.50;99.90;;;;;;6277331;22;20218;-84
2021/05/19 01:34:18;;;;;;;10.73;6.77;;;10.50;99.90;;;;;;6300065;22;20472;-84
2021/05/19 01:36:45;;;;;;;9.60;6.90;;;10.50;99.90;;;;;;6300235;22;20171;-83
2021/05/19 01:39:12;;;;;;;10.50;7.33;;;10.50;99.90;;;;;;6300435;22;20221;-84
2021/05/19 01:41:39;;;;;;;12.60;6.27;;;10.50;99.90;;;;;;6300073;22;20876;-85
2021/05/19 01:44:13;;;;;;;7.50;4.67;;;10.50;99.90;;;;;;6299450;22;20164;-83
2021/05/19 01:46:41;;;;;;;7.27;3.50;;;10.60;99.90;;;;;;6299793;22;20195;-83
2021/05/19 01:49:08;;;;;;;6.80;2.70;;;10.50;99.90;;;;;;6299653;22;20216;-81
2021/05/19 01:51:36;;;;;;;6.80;2.90;;;10.50;99.90;;;;;;6300123;22;20175;-85
2021/05/19 01:54:04;;;;;;;6.23;3.57;;;10.50;99.90;;;;;;6298651;22;20168;-83
2021/05/19 01:56:31;;;;;;;6.20;2.70;;;10.50;99.90;;;;;;6298926;22;20224;-82
2021/05/19 01:58:58;;;;;;;7.30;2.60;;;10.50;99.90;;;;;;6299988;22;20172;-84
2021/05/19 02:01:25;;;;;;;9.30;2.80;;;10.50;99.90;;;;;;6299871;22;20521;-84
2021/05/19 02:03:51;;;;;;;3.53;2.33;;;10.50;99.90;;;;;;6299413;22;20584;-83
2021/05/19 02:06:17;;;;;;;4.70;2.30;;;10.50;99.90;;;;;;6298404;22;20203;-83
2021/05/19 02:08:44;;;;;;;6.07;2.50;;;10.50;99.90;;;;;;6299056;22;20179;-83
2021/05/19 02:11:10;;;;;;;6.97;2.30;;;10.50;99.90;;;;;;6298271;22;20176;-83
2021/05/19 02:13:38;;;;;;;5.10;2.43;;;10.50;99.90;;;;;;6298622;22;20168;-81
2021/05/19 02:16:05;;;;;;;5.90;2.50;;;10.50;99.90;;;;;;6299756;22;20244;-83
2021/05/19 02:18:31;;;;;;;7.30;2.27;;;10.50;99.90;;;;;;6299267;22;20255;-86
2021/05/19 02:21:02;;;;;;;5.50;2.77;;;10.50;99.90;;;;;;6298866;22;20191;-86
2021/05/19 02:23:29;;;;;;;3.80;1.93;;;10.50;99.90;;;;;;6298668;22;20152;-83
2021/05/19 02:25:55;;;;;;;5.00;2.17;;;10.50;99.90;;;;;;6297956;22;20191;-80
2021/05/19 02:28:21;;;;;;;6.80;2.50;;;10.50;99.90;;;;;;6298617;22;20520;-80
2021/05/19 02:30:49;;;;;;;5.87;2.00;;;10.40;99.90;;;;;;6298675;22;20176;-85
2021/05/19 02:33:20;;;;;;;6.50;2.13;;;10.50;99.90;;;;;;6299687;22;20289;-83
2021/05/19 02:35:46;;;;;;;4.33;1.90;;;10.40;99.90;;;;;;6299859;22;20161;-81
2021/05/19 02:38:12;;;;;;;3.50;1.90;;;10.40;99.90;;;;;;6298826;22;20168;-82
2021/05/19 02:40:38;;;;;;;8.27;2.83;;;10.40;99.90;;;;;;6299496;22;20172;-82
2021/05/19 02:43:05;;;;;;;6.10;2.50;;;10.40;99.90;;;;;;6298211;22;20552;-82
2021/05/19 02:45:31;;;;;;;6.80;2.60;;;10.40;99.90;;;;;;6299667;22;20243;-84
2021/05/19 02:47:58;;;;;;;7.87;3.93;;;10.40;99.90;;;;;;6298694;22;20506;-82
2021/05/19 02:50:25;;;;;;;8.13;4.00;;;10.30;99.90;;;;;;6299634;22;20225;-83
2021/05/19 02:52:51;;;;;;;6.83;3.20;;;10.30;99.90;;;;;;6297957;22;20168;-83
2021/05/19 02:55:17;;;;;;;8.10;4.47;;;10.20;99.90;;;;;;6299329;22;20169;-81
2021/05/19 02:57:43;;;;;;;8.30;4.30;;;10.20;99.90;;;;;;6298763;22;20251;-82
2021/05/19 03:00:11;;;;;;;6.60;4.47;;;10.20;99.90;;;;;;6297764;22;20933;-85
2021/05/19 03:02:37;;;;;;;9.70;3.97;;;10.10;99.90;;;;;;6299409;22;20182;-84
2021/05/19 03:05:06;;;;;;;6.40;3.23;;;10.10;99.90;;;;;;6298048;22;20180;-85
2021/05/19 03:07:32;;;;;;;4.40;2.43;;;10.10;99.90;;;;;;6299083;22;20184;-81
2021/05/19 03:09:59;;;;;;;6.63;2.90;;;10.10;99.90;;;;;;6298637;22;20172;-84
2021/05/19 03:12:25;;;;;;;5.70;2.10;;;10.10;99.90;;;;;;6298591;22;20168;-82
2021/05/19 03:14:51;;;;;;;6.20;2.37;;;10.10;99.90;;;;;;6297490;22;20164;-81
2021/05/19 03:17:18;;;;;;;8.77;2.80;;;10.10;99.90;;;;;;6298743;22;20168;-81
2021/05/19 03:19:44;;;;;;;5.17;2.20;;;10.10;99.90;;;;;;6298879;22;20222;-82
2021/05/19 03:22:12;;;;;;;5.60;2.67;;;10.10;99.90;;;;;;6297720;22;20175;-82
2021/05/19 03:24:38;;;;;;;6.77;2.90;;;10.10;99.90;;;;;;6298873;22;20480;-83
2021/05/19 03:27:04;;;;;;;7.00;2.60;;;10.10;99.90;;;;;;6298131;22;20733;-84
2021/05/19 03:29:31;;;;;;;6.90;2.90;;;10.20;99.90;;;;;;6298893;22;20175;-82
2021/05/19 03:31:57;;;;;;;6.20;3.23;;;10.20;99.90;;;;;;6298291;22;20196;-81
2021/05/19 03:34:24;;;;;;;5.37;2.67;;;10.20;99.90;;;;;;6298057;22;20169;-81
2021/05/19 03:36:50;;;;;;;6.63;2.53;;;10.20;99.90;;;;;;6299004;22;20198;-85
2021/05/19 03:39:17;;;;;;;9.77;2.80;;;10.20;99.90;;;;;;6299567;22;20866;-81
2021/05/19 03:41:44;;;;;;;8.90;3.13;;;10.20;99.90;;;;;;6298712;22;20190;-85
2021/05/19 03:44:12;;;;;;;7.93;3.03;;;10.30;99.90;;;;;;6299573;22;20179;-81
2021/05/19 03:46:38;;;;;;;8.63;3.57;;;10.30;99.90;;;;;;6299266;22;20187;-82
2021/05/19 03:49:05;;;;;;;13.20;3.20;;;10.40;99.90;;;;;;6299545;22;20172;-84
2021/05/19 03:51:32;;;;;;;10.97;3.53;;;10.40;99.90;;;;;;6299827;22;20172;-86
2021/05/19 03:53:58;;;;;;;9.87;2.70;;;10.50;99.90;;;;;;6299122;22;20168;-82
2021/05/19 03:56:26;;;;;;;10.50;3.20;;;10.60;99.90;;;;;;6297955;22;20172;-84
2021/05/19 03:58:52;;;;;;;14.80;3.30;;;10.60;99.90;;;;;;6300635;22;20703;-81
2021/05/19 04:01:19;;;;;;;7.30;3.00;;;10.60;99.90;;;;;;6300946;22;20172;-81
2021/05/19 04:03:45;;;;;;;8.20;2.80;;;10.60;99.90;;;;;;6299306;22;20172;-83
2021/05/19 04:06:12;;;;;;;9.10;3.83;;;10.70;99.90;;;;;;6300234;22;20331;-82
2021/05/19 04:08:40;;;;;;;11.63;3.97;;;10.70;99.90;;;;;;6300755;22;20833;-84
2021/05/19 04:11:09;;;;;;;12.43;3.30;;;10.70;99.90;;;;;;6299734;22;20179;-83
2021/05/19 04:13:37;;;;;;;12.30;3.50;;;10.80;99.90;;;;;;6301265;22;20202;-83
2021/05/19 04:16:03;;;;;;;13.50;3.47;;;10.80;99.90;;;;;;6300720;22;20172;-85
2021/05/19 04:18:30;;;;;;;11.13;3.17;;;10.90;99.90;;;;;;6300547;22;20176;-83
2021/05/19 04:20:56;;;;;;;9.17;2.73;;;10.90;99.90;;;;;;6301140;22;20167;-82
2021/05/19 04:23:25;;;;;;;13.57;3.50;;;10.90;99.90;;;;;;6301834;22;20183;-83
2021/05/19 04:25:52;;;;;;;14.80;3.03;;;11.00;99.90;;;;;;6300293;22;20195;-85
2021/05/19 04:28:20;;;;;;;11.07;3.20;;;11.00;99.90;;;;;;6300931;22;20176;-86
2021/05/19 04:30:47;;;;;;;12.83;3.50;;;11.00;99.90;;;;;;6300796;22;20206;-83
2021/05/19 04:33:14;;;;;;;11.03;3.03;;;11.10;99.90;;;;;;6299646;22;20682;-82
2021/05/19 04:35:41;;;;;;;13.67;4.10;;;11.10;99.90;;;;;;6300822;22;20615;-81
2021/05/19 04:38:07;;;;;;;11.63;3.87;;;11.10;99.90;;;;;;6300292;22;20175;-83
2021/05/19 04:40:34;;;;;;;14.67;4.17;;;11.20;99.90;;;;;;6299791;22;20576;-84
2021/05/19 04:43:04;;;;;;;11.60;3.20;;;11.20;99.90;;;;;;6300538;22;20175;-84
2021/05/19 04:45:30;;;;;;;8.43;3.10;;;11.20;99.90;;;;;;6300024;22;20164;-84
2021/05/19 04:47:57;;;;;;;8.10;3.93;;;11.20;99.90;;;;;;6300924;22;20175;-86
2021/05/19 04:50:25;;;;;;;16.27;4.53;;;11.20;99.90;;;;;;6300080;22;20186;-81
2021/05/19 04:52:52;;;;;;;16.53;4.50;;;11.20;99.90;;;;;;6299412;22;20234;-83
2021/05/19 04:55:18;;;;;;;16.63;5.47;;;11.20;99.90;;;;;;6300330;22;20164;-83
2021/05/19 04:57:44;;;;;;;12.17;4.57;;;11.20;99.90;;;;;;6300442;22;20164;-85
2021/05/19 05:00:12;;;;;;;13.13;5.10;;;11.30;99.90;;;;;;6299906;22;20928;-82
2021/05/19 05:02:39;;;;;;;16.90;5.47;;;11.30;99.90;;;;;;6300121;22;20190;-84
2021/05/19 05:05:08;;;;;;;14.80;5.23;;;11.30;99.90;;;;;;6300920;22;20172;-83
2021/05/19 05:07:35;;;;;;;10.70;4.23;;;11.40;99.90;;;;;;6299840;22;20253;-83
2021/05/19 05:10:02;;;;;;;14.50;5.13;;;11.40;99.90;;;;;;6299892;22;20876;-83
2021/05/19 05:12:29;;;;;;;16.37;5.77;;;11.40;99.90;;;;;;6300925;22;20202;-82
2021/05/19 05:14:55;;;;;;;17.63;5.23;;;11.40;99.90;;;;;;6299438;22;20234;-85
2021/05/19 05:17:21;;;;;;;16.17;5.83;;;11.50;99.90;;;;;;6300191;22;20470;-84
2021/05/19 05:19:48;;;;;;;15.17;5.83;;;11.50;99.90;;;;;;6299959;22;20529;-85
2021/05/19 05:22:15;;;;;;;14.27;4.87;;;11.50;99.90;;;;;;6299361;22;20183;-84
2021/05/19 05:24:41;;;;;;;14.03;5.87;;;11.50;99.90;;;;;;6300059;22;20164;-82
2021/05/19 05:27:08;;;;;;;17.33;6.03;;;11.60;99.90;;;;;;6299046;22;20200;-84
2021/05/19 05:29:34;;;;;;;13.93;5.00;;;11.60;99.90;;;;;;6300304;22;20168;-84
2021/05/19 05:32:00;;;;;;;18.63;6.17;;;11.60;99.90;;;;;;6299257;22;20232;-83
2021/05/19 05:34:27;;;;;;;16.53;5.67;;;11.60;99.90;;;;;;6299507;22;20477;-82
2021/05/19 05:36:54;;;;;;;16.93;6.17;;;11.60;99.90;;;;;;6300509;22;20199;-83
2021/05/19 05:39:21;;;;;;;13.47;5.60;;;11.60;99.90;;;;;;6301591;22;20169;-86
2021/05/19 05:41:47;;;;;;;16.93;6.27;;;11.70;99.90;;;;;;6300603;22;20587;-85
2021/05/19 05:44:14;;;;;;;18.40;6.97;;;11.70;99.90;;;;;;6301240;22;20192;-86
2021/05/19 05:46:40;;;;;;;14.77;5.60;;;11.70;99.90;;;;;;6301489;22;20467;-86
2021/05/19 05:49:07;;;;;;;13.97;5.60;;;11.70;99.90;;;;;;6300435;22;20175;-86
2021/05/19 05:51:34;;;;;;;15.73;6.67;;;11.80;99.90;;;;;;6299913;22;20176;-83
2021/05/19 05:54:00;;;;;;;21.40;7.70;;;11.80;99.90;;;;;;6299686;22;20172;-84
2021/05/19 05:56:27;;;;;;;12.70;5.80;;;11.80;99.90;;;;;;6298840;22;20168;-84
2021/05/19 05:58:54;;;;;;;16.50;6.20;;;11.90;99.90;;;;;;6299275;22;20175;-85
2021/05/19 06:01:20;;;;;;;16.27;5.10;;;11.90;99.90;;;;;;6298643;22;20172;-86
2021/05/19 06:03:46;;;;;;;13.53;5.70;;;12.00;99.90;;;;;;6295889;22;20221;-86
2021/05/19 06:06:13;;;;;;;23.90;7.47;;;12.10;99.90;;;;;;6296639;22;20211;-86
2021/05/19 06:08:39;;;;;;;18.10;6.30;;;12.10;99.90;;;;;;6299813;22;20410;-86
2021/05/19 06:11:07;;;;;;;18.17;6.07;;;12.10;99.90;;;;;;6300541;22;20164;-87
2021/05/19 06:13:35;;;;;;;16.40;6.60;;;12.20;99.90;;;;;;6301567;22;20172;-86
2021/05/19 06:16:01;;;;;;;13.97;4.80;;;12.20;99.90;;;;;;6301482;22;20176;-85
2021/05/19 06:18:28;;;;;;;15.90;6.07;;;12.30;99.90;;;;;;6300863;22;20172;-86
2021/05/19 06:20:54;;;;;;;18.10;5.73;;;12.20;99.90;;;;;;6300829;22;20260;-86
2021/05/19 06:23:20;;;;;;;19.03;6.87;;;12.30;99.90;;;;;;6302183;22;20171;-87
2021/05/19 06:25:47;;;;;;;15.83;6.83;;;12.30;99.90;;;;;;6301149;22;20200;-87
2021/05/19 06:28:14;;;;;;;16.33;5.43;;;12.30;99.90;;;;;;6301591;22;20180;-85
2021/05/19 06:30:41;;;;;;;12.77;5.87;;;12.40;99.90;;;;;;6301710;22;20208;-82
2021/05/19 06:33:07;;;;;;;17.63;5.80;;;12.40;99.90;;;;;;6301045;22;20200;-84
2021/05/19 06:35:33;;;;;;;16.70;6.90;;;12.40;99.90;;;;;;6302589;22;20226;-87
2021/05/19 06:38:00;;;;;;;20.97;8.87;;;12.50;99.90;;;;;;6301344;22;20172;-85
2021/05/19 06:40:26;;;;;;;15.50;7.30;;;12.50;99.90;;;;;;6301378;22;20172;-84
2021/05/19 06:42:53;;;;;;;17.77;8.20;;;12.60;99.90;;;;;;6300542;22;20179;-85
2021/05/19 06:45:19;;;;;;;15.67;6.13;;;12.60;99.90;;;;;;6299677;22;20533;-87
2021/05/19 06:47:46;;;;;;;14.07;5.57;;;12.70;99.90;;;;;;6300468;22;20192;-84
2021/05/19 06:50:13;;;;;;;18.70;7.07;;;12.70;99.90;;;;;;6301190;22;20436;-86
2021/05/19 06:52:39;;;;;;;11.60;6.20;;;12.80;99.90;;;;;;6301193;22;20179;-84
2021/05/19 06:55:07;;;;;;;14.67;6.73;;;12.80;99.90;;;;;;6300377;22;20553;-85
2021/05/19 06:57:35;;;;;;;12.87;5.07;;;12.80;99.90;;;;;;6299550;22;20418;-83
2021/05/19 07:00:02;;;;;;;12.70;4.93;;;12.80;99.90;;;;;;6299282;22;20636;-82
2021/05/19 07:02:29;;;;;;;19.07;5.80;;;12.80;99.90;;;;;;6300282;22;20237;-85
2021/05/19 07:04:56;;;;;;;11.53;4.87;;;12.90;99.90;;;;;;6299785;22;20168;-85
2021/05/19 07:07:23;;;;;;;16.33;5.33;;;12.90;99.90;;;;;;6299095;22;20584;-85
2021/05/19 07:09:49;;;;;;;21.67;6.80;;;13.00;99.90;;;;;;6262037;22;20199;-82
2021/05/19 07:12:16;;;;;;;24.13;8.17;;;13.00;99.90;;;;;;6298977;22;20165;-83
2021/05/19 07:14:47;;;;;;;32.73;12.03;;;13.10;99.90;;;;;;6298290;22;20168;-84
2021/05/19 07:17:14;;;;;;;21.10;7.33;;;13.20;99.90;;;;;;6298789;22;20514;-81
2021/05/19 07:19:46;;;;;;;9.97;4.63;;;13.20;99.90;;;;;;6298099;22;20172;-81
2021/05/19 07:22:13;;;;;;;12.97;4.20;;;13.30;99.90;;;;;;6298292;22;20171;-81
2021/05/19 07:24:39;;;;;;;12.87;5.17;;;13.30;99.90;;;;;;6298624;22;20407;-82
2021/05/19 07:27:06;;;;;;;11.57;4.60;;;13.30;99.90;;;;;;6248724;22;20494;-81
2021/05/19 07:29:33;;;;;;;13.00;4.83;;;13.20;99.90;;;;;;6267656;22;20173;-83
2021/05/19 07:31:59;;;;;;;10.73;4.50;;;13.20;99.90;;;;;;6265621;22;20186;-82
2021/05/19 07:34:26;;;;;;;10.33;4.87;;;13.30;99.90;;;;;;6267552;22;20183;-81
2021/05/19 07:36:53;;;;;;;13.50;4.73;;;13.30;99.90;;;;;;6270005;22;20192;-80
2021/05/19 07:39:21;;;;;;;10.90;4.43;;;13.40;99.90;;;;;;6266449;22;20176;-81
2021/05/19 07:41:47;;;;;;;11.73;5.80;;;13.50;99.90;;;;;;6264407;22;20196;-82
2021/05/19 07:44:13;;;;;;;11.10;4.70;;;13.70;99.90;;;;;;6267953;22;20173;-81
2021/05/19 07:46:40;;;;;;;9.60;4.37;;;13.80;99.90;;;;;;6267761;22;20188;-83
2021/05/19 07:49:07;;;;;;;10.00;5.10;;;13.90;99.90;;;;;;6268197;22;20184;-82
2021/05/19 07:51:33;;;;;;;10.90;5.47;;;14.10;99.90;;;;;;6267636;22;20173;-82
2021/05/19 07:54:01;;;;;;;10.93;5.23;;;14.30;99.90;;;;;;6241087;22;20252;-81
2021/05/19 07:56:34;;;;;;;8.97;3.17;;;14.70;99.90;;;;;;6266795;22;20165;-79
2021/05/19 07:59:04;;;;;;;11.93;2.90;;;15.10;99.90;;;;;;6267007;22;20435;-80
2021/05/19 08:01:53;;;;;;;9.80;3.10;;;15.30;99.90;;;;;;6266805;22;20172;-81
2021/05/19 08:04:20;;;;;;;7.73;3.03;;;15.30;99.90;;;;;;6267016;22;20179;-82
2021/05/19 08:06:46;;;;;;;10.07;2.50;;;15.30;99.90;;;;;;6267177;22;20196;-79
2021/05/19 08:09:12;;;;;;;11.63;2.40;;;15.30;99.90;;;;;;6266121;22;20505;-80
2021/05/19 08:11:40;;;;;;;9.93;3.00;;;15.30;99.90;;;;;;6265405;22;20180;-81
2021/05/19 08:14:06;;;;;;;11.47;3.00;;;15.10;99.90;;;;;;6266545;22;20168;-81
2021/05/19 08:16:33;;;;;;;11.50;3.50;;;15.20;99.90;;;;;;6265010;22;20182;-81
2021/05/19 08:18:59;;;;;;;10.17;3.30;;;15.20;99.90;;;;;;6265915;22;20165;-80
2021/05/19 08:21:25;;;;;;;6.03;3.00;;;15.30;99.90;;;;;;6264349;22;20184;-80
2021/05/19 08:23:52;;;;;;;4.40;2.03;;;15.50;99.90;;;;;;6265199;22;20223;-81
2021/05/19 08:26:18;;;;;;;6.37;2.23;;;15.50;99.90;;;;;;6266716;22;20200;-82
2021/05/19 08:28:46;;;;;;;6.37;1.73;;;15.60;99.90;;;;;;6265803;22;20219;-82
2021/05/19 08:31:13;;;;;;;12.23;4.53;;;15.60;99.90;;;;;;6261811;22;20185;-80
2021/05/19 08:33:41;;;;;;;11.60;4.57;;;15.50;99.90;;;;;;6264593;22;20173;-80
2021/05/19 08:36:07;;;;;;;12.10;3.30;;;15.40;99.90;;;;;;6265020;22;20500;-79
2021/05/19 08:38:37;;;;;;;8.57;2.50;;;15.30;99.90;;;;;;6264386;22;20169;-79
2021/05/19 08:41:04;;;;;;;5.27;1.80;;;15.10;99.90;;;;;;6265023;22;20176;-80
2021/05/19 08:43:31;;;;;;;10.67;3.40;;;14.90;99.90;;;;;;6266015;22;20173;-80
2021/05/19 08:45:58;;;;;;;5.33;2.40;;;14.90;99.90;;;;;;6265292;22;20243;-78
2021/05/19 08:48:25;;;;;;;7.20;2.30;;;14.80;99.90;;;;;;6266323;22;20176;-80
2021/05/19 08:50:52;;;;;;;4.67;2.07;;;14.70;99.90;;;;;;6265259;22;20187;-82
2021/05/19 08:53:19;;;;;;;4.73;2.00;;;14.60;99.90;;;;;;6264316;22;20173;-77
2021/05/19 08:55:46;;;;;;;9.40;2.50;;;14.70;99.90;;;;;;6266284;22;20184;-79
2021/05/19 08:58:12;;;;;;;7.13;2.80;;;14.70;99.90;;;;;;6265821;22;20275;-80
2021/05/19 09:00:38;;;;;;;6.80;2.10;;;14.70;99.90;;;;;;6266757;22;20227;-80
2021/05/19 09:03:11;;;;;;;12.03;2.70;;;14.70;99.90;;;;;;6266624;22;20172;-78
2021/05/19 09:05:39;;;;;;;5.60;2.50;;;14.70;99.90;;;;;;6265224;22;20176;-81
2021/05/19 09:08:07;;;;;;;6.93;2.40;;;14.70;99.90;;;;;;6266178;22;20250;-77
2021/05/19 09:10:34;;;;;;;7.57;2.30;;;14.60;99.90;;;;;;6266035;22;20181;-81
2021/05/19 09:13:00;;;;;;;7.80;2.40;;;14.60;99.90;;;;;;6266189;22;20211;-83
2021/05/19 09:15:45;;;;;;;8.50;3.30;;;14.50;99.90;;;;;;6263690;22;20165;-80
2021/05/19 09:18:12;;;;;;;11.20;2.90;;;14.40;99.90;;;;;;6263866;22;20160;-80
2021/05/19 09:20:50;;;;;;;3.93;2.00;;;14.40;99.90;;;;;;6265642;22;20234;-82
2021/05/19 09:23:19;;;;;;;8.17;2.80;;;14.40;99.90;;;;;;6267208;22;20168;-81
2021/05/19 09:26:02;;;;;;;7.20;2.20;;;14.40;99.90;;;;;;6267147;22;20175;-83
2021/05/19 09:28:29;;;;;;;5.27;2.00;;;14.40;99.90;;;;;;6266482;22;20204;-85
2021/05/19 09:30:55;;;;;;;7.17;1.93;;;14.50;99.90;;;;;;6266226;22;20461;-80
2021/05/19 09:33:26;;;;;;;5.53;1.80;;;14.50;99.90;;;;;;6266084;22;20558;-79
2021/05/19 09:36:10;;;;;;;8.90;2.97;;;14.60;99.90;;;;;;6266471;22;20196;-82
2021/05/19 09:38:37;;;;;;;6.80;2.10;;;14.60;99.90;;;;;;6266457;22;20486;-77
2021/05/19 09:41:23;;;;;;;8.07;1.90;;;14.60;99.90;;;;;;6264864;22;20165;-81
2021/05/19 09:43:53;;;;;;;4.00;1.50;;;14.70;99.90;;;;;;6265916;22;20466;-83
2021/05/19 09:46:23;;;;;;;5.93;2.30;;;14.80;99.90;;;;;;6264078;22;20196;-77
2021/05/19 09:49:11;;;;;;;6.80;1.97;;;14.80;99.90;;;;;;6263354;22;20176;-80
2021/05/19 09:51:39;;;;;;;7.70;2.80;;;14.80;99.90;;;;;;6263906;22;20176;-77
2021/05/19 09:54:05;;;;;;;5.50;1.77;;;14.80;99.90;;;;;;6262575;22;20160;-80
2021/05/19 09:56:32;;;;;;;6.13;2.73;;;14.80;99.90;;;;;;6262455;22;20173;-77
2021/05/19 09:58:58;;;;;;;8.20;2.33;;;14.80;99.90;;;;;;6263535;22;20180;-80
2021/05/19 10:01:25;;;;;;;5.20;2.00;;;14.90;99.90;;;;;;6262615;22;20223;-77
2021/05/19 10:03:52;;;;;;;9.33;2.47;;;14.90;99.90;;;;;;6259890;22;20565;-78
2021/05/19 10:06:23;;;;;;;6.70;2.47;;;14.80;99.90;;;;;;6262182;22;20228;-78
2021/05/19 10:08:50;;;;;;;7.40;2.43;;;14.80;99.90;;;;;;6263040;22;21002;-78
2021/05/19 10:11:18;;;;;;;9.83;2.77;;;14.70;99.90;;;;;;6261714;22;20176;-79
2021/05/19 10:13:45;;;;;;;10.33;3.10;;;14.70;99.90;;;;;;6262143;22;20176;-78
2021/05/19 10:16:16;;;;;;;8.50;2.40;;;14.50;99.90;;;;;;6260995;22;20200;-78
2021/05/19 10:18:48;;;;;;;11.90;3.13;;;14.50;99.90;;;;;;6258867;22;20161;-77
2021/05/19 10:21:16;;;;;;;8.37;2.83;;;14.40;99.90;;;;;;6262939;22;20165;-77
2021/05/19 10:24:00;;;;;;;8.90;3.00;;;14.30;99.90;;;;;;6261411;22;20238;-80
2021/05/19 10:26:26;;;;;;;9.87;4.13;;;14.20;99.90;;;;;;6261519;22;20203;-78
2021/05/19 10:28:53;;;;;;;8.93;3.47;;;14.20;99.90;;;;;;6263496;22;20165;-79
2021/05/19 10:31:28;;;;;;;11.07;3.63;;;14.10;99.90;;;;;;6262675;22;20165;-79
2021/05/19 10:33:56;;;;;;;11.23;3.60;;;14.00;99.90;;;;;;6264006;22;20168;-80
2021/05/19 10:36:42;;;;;;;8.60;3.23;;;13.90;99.90;;;;;;6263337;22;20497;-80
2021/05/19 10:39:27;;;;;;;7.50;2.90;;;13.80;99.90;;;;;;6263763;22;20244;-82
2021/05/19 10:41:57;;;;;;;7.30;2.33;;;13.60;99.90;;;;;;6266116;22;20482;-83
2021/05/19 10:44:29;;;;;;;6.73;1.63;;;13.50;99.90;;;;;;6266271;22;20165;-80
2021/05/19 10:47:02;;;;;;;2.53;1.50;;;13.50;99.90;;;;;;6263938;22;20199;-79
2021/05/19 10:50:06;;;;;;;5.00;1.57;;;13.40;99.90;;;;;;6265873;22;20169;-79
2021/05/19 10:58:42;;;;;;;2.87;1.63;;;13.10;99.90;;;;;;6265881;22;20164;-79
2021/05/19 11:01:10;;;;;;;4.53;1.60;;;13.10;99.90;;;;;;6264632;22;20169;-81
2021/05/19 11:03:37;;;;;;;3.30;1.80;;;12.90;99.90;;;;;;6265390;22;20180;-78
2021/05/19 11:06:13;;;;;;;4.43;1.60;;;12.90;99.90;;;;;;6265929;22;20173;-78
2021/05/19 11:08:41;;;;;;;5.43;1.73;;;12.90;99.90;;;;;;6264733;22;20168;-78
2021/05/19 11:11:35;;;;;;;5.67;2.40;;;12.80;99.90;;;;;;6265459;22;20176;-77
2021/05/19 11:14:10;;;;;;;6.07;2.03;;;12.80;99.90;;;;;;6265592;22;20249;-81
2021/05/19 11:19:38;;;;;;;9.00;2.50;;;12.70;99.90;;;;;;6262824;22;20285;-79
2021/05/19 11:22:10;;;;;;;8.23;2.87;;;12.80;99.90;;;;;;6263462;22;20221;-81
2021/05/19 11:25:05;;;;;;;7.47;2.80;;;12.80;99.90;;;;;;6264129;22;20172;-77
2021/05/19 11:27:34;;;;;;;8.87;3.73;;;12.80;99.90;;;;;;6192258;22;20234;-78
2021/05/19 11:30:02;;;;;;;7.00;2.73;;;12.80;99.90;;;;;;6263196;22;20176;-79
2021/05/19 11:32:30;;;;;;;4.00;2.40;;;12.70;99.90;;;;;;6263517;22;20204;-79
2021/05/19 11:35:12;;;;;;;8.77;3.40;;;12.70;99.90;;;;;;6263849;22;20284;-78
2021/05/19 11:37:52;;;;;;;4.90;2.60;;;12.70;99.90;;;;;;6264818;22;20179;-78
2021/05/19 11:40:20;;;;;;;5.17;2.10;;;12.70;99.90;;;;;;6265076;22;20169;-79
2021/05/19 11:42:54;;;;;;;5.00;2.10;;;12.70;99.90;;;;;;6266487;22;20172;-79
2021/05/19 11:45:23;;;;;;;4.57;2.10;;;12.70;99.90;;;;;;6265339;22;20169;-79
2021/05/19 11:47:49;;;;;;;2.83;1.70;;;12.70;99.90;;;;;;6263627;22;20203;-85
2021/05/19 11:50:17;;;;;;;2.93;1.80;;;12.80;99.90;;;;;;6264179;22;20173;-77
2021/05/19 11:52:50;;;;;;;3.13;1.90;;;12.80;99.90;;;;;;6262930;22;20561;-80
2021/05/19 11:55:32;;;;;;;2.10;1.30;;;12.90;99.90;;;;;;6263143;22;20173;-83
2021/05/19 11:58:16;;;;;;;4.13;2.20;;;12.90;99.90;;;;;;6263753;22;20169;-81
2021/05/19 12:00:46;;;;;;;3.53;1.70;;;13.10;99.90;;;;;;6264046;22;20222;-82
2021/05/19 12:03:14;;;;;;;5.87;1.77;;;13.10;99.90;;;;;;6262033;22;20173;-80
2021/05/19 12:05:49;;;;;;;2.57;1.60;;;13.20;99.90;;;;;;6262363;22;20168;-78
2021/05/19 12:08:16;;;;;;;3.70;1.70;;;13.40;99.90;;;;;;6263459;22;20195;-78
2021/05/19 12:10:45;;;;;;;3.90;1.83;;;13.40;99.90;;;;;;6262340;22;20526;-77
2021/05/19 12:13:12;;;;;;;4.63;2.30;;;13.50;99.90;;;;;;6263817;22;20176;-82
2021/05/19 12:15:39;;;;;;;5.60;2.30;;;13.50;99.90;;;;;;6263022;22;20588;-79
2021/05/19 12:18:07;;;;;;;5.80;2.47;;;13.50;99.90;;;;;;6263329;22;20173;-78
2021/05/19 12:20:37;;;;;;;8.20;3.00;;;13.40;99.90;;;;;;6265455;22;20264;-78
2021/05/19 12:23:05;;;;;;;4.10;2.33;;;13.40;99.90;;;;;;6263256;22;20237;-81
2021/05/19 12:25:34;;;;;;;4.30;2.57;;;13.40;99.90;;;;;;6264188;22;20180;-77
2021/05/19 12:28:03;;;;;;;5.53;2.20;;;13.30;99.90;;;;;;6263579;22;20297;-81
2021/05/19 12:30:41;;;;;;;7.00;2.77;;;13.20;99.90;;;;;;6264951;22;20173;-80
2021/05/19 12:33:09;;;;;;;7.07;3.10;;;13.20;99.90;;;;;;6264348;22;20179;-79
2021/05/19 12:35:41;;;;;;;6.97;4.07;;;13.20;99.90;;;;;;6264258;22;20173;-77
2021/05/19 12:38:08;;;;;;;5.10;2.77;;;13.10;99.90;;;;;;6263723;22;20191;-82
2021/05/19 12:40:36;;;;;;;9.33;3.20;;;13.10;99.90;;;;;;6265120;22;20181;-80
2021/05/19 12:43:05;;;;;;;6.77;2.93;;;13.10;99.90;;;;;;6264657;22;20976;-78
2021/05/19 12:45:35;;;;;;;9.30;3.93;;;13.10;99.90;;;;;;6263629;22;20247;-77
2021/05/19 12:48:06;;;;;;;8.93;4.13;;;13.10;99.90;;;;;;6263356;22;20462;-77
2021/05/19 12:50:38;;;;;;;9.20;3.20;;;13.10;99.90;;;;;;6263670;22;20176;-80
2021/05/19 12:53:04;;;;;;;5.40;3.77;;;13.30;99.90;;;;;;6262679;22;20188;-77
2021/05/19 12:55:30;;;;;;;7.27;4.30;;;13.80;99.90;;;;;;6264618;22;20164;-76
2021/05/19 12:58:10;;;;;;;4.57;3.70;;;14.30;99.90;;;;;;6263030;22;20200;-77